createdAt,value
2022-09-15T00:01:51.547Z,100.00
2022-09-15T00:06:53.111Z,100.00
2022-09-15T00:11:54.565Z,100.00
2022-09-15T00:16:56.065Z,100.00
2022-09-15T00:21:57.709Z,100.00
2022-09-15T00:26:59.209Z,100.00
2022-09-15T00:32:00.711Z,100.00
2022-09-15T00:37:02.320Z,100.00
2022-09-15T00:42:04.135Z,100.00
2022-09-15T00:47:22.062Z,100.00
2022-09-15T00:52:47.939Z,100.00
2022-09-15T00:57:55.991Z,100.00
2022-09-15T01:02:57.601Z,100.00
2022-09-15T01:08:05.592Z,100.00
2022-09-15T01:13:12.597Z,100.00
2022-09-15T01:18:35.318Z,100.00
2022-09-15T01:24:01.550Z,100.00
2022-09-15T01:29:40.430Z,100.00
2022-09-15T01:34:50.565Z,100.00
2022-09-15T01:39:53.876Z,100.00
2022-09-15T01:45:03.823Z,100.00
2022-09-15T01:50:10.554Z,100.00
2022-09-15T01:55:17.909Z,100.00
2022-09-15T02:00:19.432Z,100.00
2022-09-15T02:05:42.287Z,100.00
2022-09-15T02:10:49.032Z,100.00
2022-09-15T02:15:55.537Z,100.00
2022-09-15T02:21:31.577Z,100.00
2022-09-15T02:26:35.714Z,100.00
2022-09-15T02:31:39.851Z,100.00
2022-09-15T02:36:42.624Z,100.00
2022-09-15T02:41:44.243Z,100.00
2022-09-15T02:46:45.835Z,100.00
2022-09-15T02:51:47.368Z,100.00
2022-09-15T02:56:48.808Z,100.00
2022-09-15T03:01:51.846Z,100.00
2022-09-15T03:06:53.447Z,100.00
2022-09-15T03:11:54.869Z,100.00
2022-09-15T03:16:58.208Z,100.00
2022-09-15T03:21:59.774Z,100.00
2022-09-15T03:27:01.206Z,100.00
2022-09-15T03:32:03.027Z,100.00
2022-09-15T03:37:04.445Z,100.00
2022-09-15T03:42:06.036Z,100.00
2022-09-15T03:47:07.664Z,100.00
2022-09-15T03:52:09.179Z,100.00
2022-09-15T03:57:11.261Z,100.00
2022-09-15T04:02:12.812Z,100.00
2022-09-15T04:07:14.289Z,100.00
2022-09-15T04:12:15.677Z,100.00
2022-09-15T04:17:17.138Z,100.00
2022-09-15T04:22:18.780Z,100.00
2022-09-15T04:27:20.239Z,100.00
2022-09-15T04:32:21.923Z,100.00
2022-09-15T04:37:23.369Z,100.00
2022-09-15T04:42:25.005Z,100.00
2022-09-15T04:47:26.407Z,100.00
2022-09-15T04:52:27.825Z,100.00
2022-09-15T04:57:29.256Z,100.00
2022-09-15T05:02:30.824Z,100.00
2022-09-15T05:07:32.340Z,100.00
2022-09-15T05:12:33.770Z,100.00
2022-09-15T05:17:35.243Z,100.00
2022-09-15T05:22:41.489Z,100.00
2022-09-15T05:27:43.502Z,100.00
2022-09-15T05:32:45.073Z,100.00
2022-09-15T05:37:46.582Z,100.00
2022-09-15T05:42:47.985Z,100.00
2022-09-15T05:47:49.535Z,100.00
2022-09-15T05:52:52.816Z,100.00
2022-09-15T05:57:54.456Z,100.00
2022-09-15T06:02:55.987Z,100.00
2022-09-15T06:07:57.525Z,100.00
2022-09-15T06:12:58.979Z,100.00
2022-09-15T06:18:00.439Z,100.00
2022-09-15T06:23:01.950Z,100.00
2022-09-15T06:28:03.415Z,100.00
2022-09-15T06:33:04.952Z,100.00
2022-09-15T06:38:06.440Z,100.00
2022-09-15T06:43:07.873Z,100.00
2022-09-15T06:48:23.906Z,100.00
2022-09-15T06:53:29.116Z,100.00
2022-09-15T06:58:31.144Z,100.00
2022-09-15T07:03:32.801Z,100.00
2022-09-15T07:08:34.716Z,100.00
2022-09-15T07:13:36.701Z,100.00
2022-09-15T07:18:42.853Z,100.00
2022-09-15T07:23:45.496Z,100.00
2022-09-15T07:29:01.324Z,100.00
2022-09-15T07:34:03.889Z,100.00
2022-09-15T07:39:05.649Z,100.00
2022-09-15T07:44:08.276Z,96.33
2022-09-15T07:49:10.113Z,94.13
2022-09-15T07:54:11.782Z,91.73
2022-09-15T07:59:13.329Z,89.41
2022-09-15T08:04:15.163Z,86.30
2022-09-15T08:09:17.674Z,84.70
2022-09-15T08:14:19.200Z,84.35
2022-09-15T08:19:20.851Z,81.43
2022-09-15T08:24:22.647Z,83.04
2022-09-15T08:29:24.098Z,80.22
2022-09-15T08:34:26.509Z,75.54
2022-09-15T08:39:27.937Z,74.55
2022-09-15T08:44:38.412Z,69.57
2022-09-15T08:50:03.480Z,71.08
2022-09-15T08:55:12.982Z,73.70
2022-09-15T09:00:16.530Z,76.37
2022-09-15T09:05:32.434Z,78.50
2022-09-15T09:10:43.064Z,78.59
2022-09-15T09:16:15.110Z,82.46
2022-09-15T09:21:39.192Z,81.04
2022-09-15T09:26:40.617Z,77.82
2022-09-15T09:31:43.165Z,73.98
2022-09-15T09:36:44.807Z,75.58
2022-09-15T09:41:47.008Z,72.68
2022-09-15T09:46:49.198Z,67.06
2022-09-15T09:51:55.096Z,65.48
2022-09-15T09:57:16.773Z,63.13
2022-09-15T10:02:28.683Z,60.14
2022-09-15T10:07:33.302Z,50.26
2022-09-15T10:12:40.734Z,46.11
2022-09-15T10:17:46.055Z,41.58
2022-09-15T10:22:47.764Z,38.96
2022-09-15T10:28:02.449Z,36.80
2022-09-15T10:33:24.607Z,37.74
2022-09-15T10:38:45.362Z,37.57
2022-09-15T10:43:54.467Z,44.42
2022-09-15T10:49:19.072Z,65.36
2022-09-15T10:54:41.758Z,77.81
2022-09-15T10:59:51.362Z,82.16
2022-09-15T11:05:05.528Z,73.84
2022-09-15T11:10:20.297Z,55.41
2022-09-15T11:15:33.480Z,46.61
2022-09-15T11:20:35.027Z,51.75
2022-09-15T11:25:43.437Z,65.21
2022-09-15T11:30:55.895Z,72.59
2022-09-15T11:36:11.218Z,83.39
2022-09-15T11:41:21.040Z,62.06
2022-09-15T11:46:44.013Z,56.50
2022-09-15T11:51:53.895Z,63.61
2022-09-15T11:56:56.409Z,64.65
2022-09-15T12:02:00.730Z,71.16
2022-09-15T12:07:16.193Z,61.79
2022-09-15T12:12:21.582Z,58.21
2022-09-15T12:17:31.872Z,56.72
2022-09-15T12:22:57.529Z,53.37
2022-09-15T12:28:24.086Z,50.76
2022-09-15T12:33:44.892Z,48.77
2022-09-15T12:38:49.440Z,49.92
2022-09-15T12:43:58.233Z,54.96
2022-09-15T12:49:03.143Z,58.14
2022-09-15T12:54:07.411Z,58.98
2022-09-15T12:59:14.066Z,54.11
2022-09-15T13:04:43.693Z,53.45
2022-09-15T13:09:57.614Z,54.41
2022-09-15T13:15:03.908Z,54.05
2022-09-15T13:20:15.194Z,53.87
2022-09-15T13:25:23.251Z,55.67
2022-09-15T13:30:49.366Z,59.31
2022-09-15T13:36:02.654Z,62.05
2022-09-15T13:41:23.307Z,71.61
2022-09-15T13:46:36.763Z,66.21
2022-09-15T13:51:43.073Z,64.88
2022-09-15T13:56:47.256Z,62.93
2022-09-15T14:01:48.858Z,61.56
2022-09-15T14:06:55.991Z,60.70
2022-09-15T14:12:04.952Z,58.49
2022-09-15T14:17:19.223Z,57.84
2022-09-15T14:22:27.294Z,57.34
2022-09-15T14:27:32.545Z,59.61
2022-09-15T14:32:39.908Z,57.46
2022-09-15T14:37:41.393Z,59.94
2022-09-15T14:42:43.257Z,62.84
2022-09-15T14:47:45.295Z,62.93
2022-09-15T14:52:48.745Z,61.88
2022-09-15T14:58:04.109Z,59.85
2022-09-15T15:03:33.067Z,60.33
2022-09-15T15:08:41.617Z,60.98
2022-09-15T15:13:45.712Z,60.78
2022-09-15T15:18:47.282Z,59.22
2022-09-15T15:23:50.041Z,59.35
2022-09-15T15:28:51.800Z,58.24
2022-09-15T15:33:59.259Z,59.92
2022-09-15T15:39:04.733Z,56.34
2022-09-15T15:44:13.708Z,58.38
2022-09-15T15:49:15.845Z,59.79
2022-09-15T15:54:17.446Z,59.20
2022-09-15T15:59:19.840Z,59.30
2022-09-15T16:04:21.327Z,60.03
2022-09-15T16:09:22.733Z,58.79
2022-09-15T16:14:24.205Z,56.92
2022-09-15T16:19:25.718Z,58.57
2022-09-15T16:24:28.412Z,59.79
2022-09-15T16:29:36.098Z,60.45
2022-09-15T16:34:37.828Z,60.08
2022-09-15T16:39:39.286Z,61.59
2022-09-15T16:44:40.680Z,61.91
2022-09-15T16:49:42.601Z,63.34
2022-09-15T16:54:44.636Z,64.95
2022-09-15T16:59:46.096Z,64.69
2022-09-15T17:04:47.516Z,64.54
2022-09-15T17:09:49.797Z,66.78
2022-09-15T17:14:51.419Z,66.94
2022-09-15T17:19:52.848Z,69.39
2022-09-15T17:24:54.317Z,67.74
2022-09-15T17:29:56.253Z,68.36
2022-09-15T17:34:57.801Z,70.55
2022-09-15T17:39:59.340Z,73.01
2022-09-15T17:45:01.035Z,75.19
2022-09-15T17:50:02.595Z,77.58
2022-09-15T17:55:12.254Z,80.99
2022-09-15T18:00:15.105Z,82.88
2022-09-15T18:05:26.928Z,85.36
2022-09-15T18:10:30.080Z,87.46
2022-09-15T18:15:33.979Z,89.62
2022-09-15T18:20:36.738Z,91.15
2022-09-15T18:25:38.252Z,92.08
2022-09-15T18:30:42.081Z,92.76
2022-09-15T18:35:44.219Z,94.05
2022-09-15T18:40:53.164Z,95.61
2022-09-15T18:46:00.491Z,95.16
2022-09-15T18:51:02.144Z,96.84
2022-09-15T18:56:11.737Z,96.84
2022-09-15T19:01:13.297Z,97.66
2022-09-15T19:06:14.803Z,98.28
2022-09-15T19:11:17.220Z,99.15
2022-09-15T19:16:22.756Z,100.00
2022-09-15T19:21:27.379Z,100.00
2022-09-15T19:26:29.583Z,99.29
2022-09-15T19:31:31.064Z,98.73
2022-09-15T19:36:32.636Z,97.88
2022-09-15T19:41:34.217Z,98.75
2022-09-15T19:46:35.667Z,98.41
2022-09-15T19:51:37.219Z,98.48
2022-09-15T19:56:38.725Z,98.69
2022-09-15T20:01:40.330Z,98.46
2022-09-15T20:06:42.196Z,98.87
2022-09-15T20:11:43.629Z,99.49
2022-09-15T20:16:45.158Z,100.00
2022-09-15T20:21:51.226Z,100.00
2022-09-15T20:26:53.181Z,100.00
2022-09-15T20:31:54.674Z,98.63
2022-09-15T20:36:56.166Z,98.56
2022-09-15T20:41:58.013Z,98.27
2022-09-15T20:46:59.536Z,98.81
2022-09-15T20:52:01.093Z,99.99
2022-09-15T20:57:02.608Z,99.53
2022-09-15T21:02:05.979Z,99.86
2022-09-15T21:07:07.510Z,99.83
2022-09-15T21:12:09.654Z,99.91
2022-09-15T21:17:11.100Z,100.00
2022-09-15T21:22:12.488Z,100.00
2022-09-15T21:27:29.935Z,100.00
2022-09-15T21:32:32.651Z,100.00
2022-09-15T21:37:34.382Z,100.00
2022-09-15T21:42:35.903Z,100.00
2022-09-15T21:47:37.527Z,100.00
2022-09-15T21:52:39.132Z,100.00
2022-09-15T21:57:40.558Z,100.00
2022-09-15T22:02:42.060Z,100.00
2022-09-15T22:07:43.924Z,100.00
2022-09-15T22:12:45.482Z,100.00
2022-09-15T22:17:46.952Z,100.00
2022-09-15T22:22:48.601Z,100.00
2022-09-15T22:27:50.101Z,100.00
2022-09-15T22:32:53.153Z,100.00
2022-09-15T22:37:54.596Z,100.00
2022-09-15T22:42:56.030Z,100.00
2022-09-15T22:47:57.429Z,100.00
2022-09-15T22:52:58.847Z,100.00
2022-09-15T22:58:00.305Z,100.00
2022-09-15T23:03:01.775Z,100.00
2022-09-15T23:08:03.743Z,100.00
2022-09-15T23:13:05.433Z,100.00
2022-09-15T23:18:06.940Z,100.00
2022-09-15T23:23:08.391Z,100.00
2022-09-15T23:28:09.794Z,100.00
2022-09-15T23:33:11.208Z,100.00
2022-09-15T23:38:13.011Z,100.00
2022-09-15T23:43:15.049Z,100.00
2022-09-15T23:48:16.815Z,100.00
2022-09-15T23:53:19.094Z,100.00
2022-09-15T23:58:20.515Z,100.00
